< < Back
Terminal Aerodrome Forecast


Current Version              Previous Versions:   1  2  3  4  5  6  7  8  9  

Terminal Aerodrome Forecast

471
FTUS42 KGSP 042337
TAFGSP
TAF
KGSP 042337Z 0500/0524 33003KT P6SM SCT150 SCT250
     FM051600 22006KT P6SM SCT060=

Latest METAR

771
SAUS70 KWBC 051000 RRH
MTRGSP
METAR KGSP 050953Z 00000KT 10SM CLR 23/19 A3002 RMK AO2 SLP149
T02280189


USA.gov is the U.S. government's official web portal to all federal, state and local government web resources and services.